Time;durP1;ratioP1;P1;durP2;ratioP2;P2;SDS_P1;SDS_P2;PMS_P1;PMS_P2;Temp;Humidity;BMP_temperature;BMP_pressure;BME280_temperature;BME280_humidity;BME280_pressure;Samples;Min_cycle;Max_cycle;Signal;HPM_P1;HPM_P2
2022/09/12 00:01:39;;;;;;;26.03;12.13;;;13.70;7.70;;;;;;5084089;28;20413;-78
2022/09/12 00:04:15;;;;;;;32.90;13.03;;;13.70;8.30;;;;;;5086031;28;20970;-79
2022/09/12 00:06:57;;;;;;;33.93;12.10;;;13.60;8.40;;;;;;5086474;28;20416;-77
2022/09/12 00:10:03;;;;;;;25.20;11.40;;;13.60;9.00;;;;;;5084030;28;20970;-78
2022/09/12 00:12:28;;;;;;;25.90;12.23;;;13.50;8.20;;;;;;5073525;28;20388;-78
2022/09/12 00:15:33;;;;;;;23.10;12.27;;;13.50;8.20;;;;;;5073560;28;20415;-78
2022/09/12 00:18:13;;;;;;;26.70;13.30;;;13.50;7.00;;;;;;5081530;28;20182;-82
2022/09/12 00:21:03;;;;;;;28.87;11.27;;;13.40;6.50;;;;;;5091480;28;20480;-82
2022/09/12 00:23:46;;;;;;;35.97;12.40;;;13.40;8.40;;;;;;5083646;28;20408;-82
2022/09/12 00:26:16;;;;;;;24.83;11.97;;;13.40;9.80;;;;;;5079031;28;20435;-82
2022/09/12 00:32:03;;;;;;;28.07;13.47;;;13.30;11.80;;;;;;5093334;28;20411;-82
2022/09/12 00:34:33;;;;;;;33.20;13.10;;;13.20;13.10;;;;;;5073302;28;20744;-82
2022/09/12 00:36:59;;;;;;;31.40;11.43;;;13.20;14.20;;;;;;5087896;28;20190;-82
2022/09/12 00:39:27;;;;;;;26.60;11.20;;;13.20;14.70;;;;;;5093414;28;20469;-82
2022/09/12 00:41:53;;;;;;;29.07;10.70;;;13.30;16.00;;;;;;5078798;28;20167;-82
2022/09/12 00:47:42;;;;;;;23.43;11.63;;;13.20;13.90;;;;;;5082712;28;20729;-78
2022/09/12 00:50:13;;;;;;;21.20;11.33;;;13.20;13.00;;;;;;5079255;28;20782;-78
2022/09/12 00:53:03;;;;;;;34.37;11.57;;;13.20;14.70;;;;;;5082142;28;20424;-77
2022/09/12 00:55:47;;;;;;;20.60;11.50;;;13.30;16.40;;;;;;5073748;28;20405;-78
2022/09/12 00:58:26;;;;;;;32.30;13.33;;;13.20;16.20;;;;;;5072968;28;20392;-77
2022/09/12 01:00:52;;;;;;;36.93;13.57;;;13.20;17.10;;;;;;5086549;28;20425;-77
2022/09/12 01:04:09;;;;;;;35.03;14.90;;;13.20;17.20;;;;;;5083671;28;20740;-82
2022/09/12 01:10:27;;;;;;;37.97;12.27;;;13.10;19.50;;;;;;5084187;28;20383;-82
2022/09/12 01:12:58;;;;;;;29.03;12.13;;;13.10;18.90;;;;;;5093703;28;20413;-82
2022/09/12 01:15:27;;;;;;;33.53;12.30;;;13.10;19.40;;;;;;5083432;28;20412;-82
2022/09/12 01:18:27;;;;;;;26.40;12.17;;;13.10;18.80;;;;;;5087942;28;20405;-82
2022/09/12 01:21:27;;;;;;;23.40;11.73;;;13.10;19.10;;;;;;5027700;28;20454;-82
2022/09/12 01:24:30;;;;;;;29.13;12.27;;;13.10;19.00;;;;;;5033759;28;20431;-82
2022/09/12 01:27:09;;;;;;;32.90;12.40;;;13.00;19.20;;;;;;4976026;28;20815;-82
2022/09/12 01:30:04;;;;;;;30.17;12.00;;;13.10;19.90;;;;;;4975771;28;20433;-82
2022/09/12 01:32:58;;;;;;;27.17;13.57;;;13.10;19.80;;;;;;4956779;29;20499;-82
2022/09/12 01:35:32;;;;;;;29.40;12.30;;;13.10;22.60;;;;;;4956286;29;20480;-82
2022/09/12 01:38:23;;;;;;;32.57;12.80;;;13.10;21.10;;;;;;4942765;29;20430;-82
2022/09/12 01:44:36;;;;;;;36.80;14.23;;;13.00;20.50;;;;;;4955983;29;20595;-82
2022/09/12 01:47:45;;;;;;;25.07;13.60;;;12.90;22.10;;;;;;4956504;29;20425;-79
2022/09/12 01:50:20;;;;;;;26.70;14.20;;;12.90;22.40;;;;;;4955708;29;20430;-77
2022/09/12 01:53:03;;;;;;;35.60;12.50;;;12.90;23.20;;;;;;4939950;29;20429;-78
2022/09/12 01:56:07;;;;;;;24.90;13.17;;;12.90;23.70;;;;;;4952645;29;20478;-78
2022/09/12 01:58:48;;;;;;;29.00;13.23;;;12.90;23.40;;;;;;4936257;29;20431;-79
2022/09/12 02:01:32;;;;;;;41.07;14.77;;;12.90;24.80;;;;;;4919290;29;20460;-77
2022/09/12 02:07:41;;;;;;;32.17;14.80;;;12.90;25.40;;;;;;4936405;29;21586;-78
2022/09/12 02:10:18;;;;;;;37.87;16.47;;;12.80;26.60;;;;;;5013082;28;20458;-78
2022/09/12 02:12:59;;;;;;;38.70;15.23;;;12.80;29.40;;;;;;5014568;28;20423;-78
2022/09/12 02:15:39;;;;;;;31.27;15.40;;;12.80;29.30;;;;;;5007898;28;20424;-78
2022/09/12 02:18:14;;;;;;;30.20;12.70;;;12.80;31.60;;;;;;5006067;28;20438;-82
2022/09/12 02:24:04;;;;;;;26.97;12.30;;;12.80;34.50;;;;;;4996357;28;20540;-82
2022/09/12 02:26:49;;;;;;;24.20;12.00;;;12.80;33.20;;;;;;4993769;28;20397;-82
2022/09/12 02:29:52;;;;;;;28.03;12.70;;;12.80;36.30;;;;;;4994150;28;20544;-82
2022/09/12 02:32:39;;;;;;;28.47;12.97;;;12.80;34.40;;;;;;5005552;28;20420;-82
2022/09/12 02:38:39;;;;;;;27.80;14.00;;;12.80;38.40;;;;;;5094156;28;20394;-82
2022/09/12 02:41:13;;;;;;;33.53;15.60;;;12.80;34.40;;;;;;5081319;28;20405;-82
2022/09/12 02:43:39;;;;;;;35.03;14.20;;;12.80;33.30;;;;;;5083717;28;20407;-82
2022/09/12 02:46:15;;;;;;;26.90;12.80;;;12.70;31.70;;;;;;5093375;28;20385;-82
2022/09/12 02:48:42;;;;;;;29.47;11.47;;;12.70;31.00;;;;;;5075247;28;20464;-79
2022/09/12 02:51:33;;;;;;;26.37;12.47;;;12.70;31.70;;;;;;5082462;28;20415;-79
2022/09/12 02:54:17;;;;;;;27.43;11.93;;;12.70;31.40;;;;;;5087278;28;20410;-79
2022/09/12 02:56:51;;;;;;;26.77;11.47;;;12.70;29.50;;;;;;5083300;28;20448;-78
2022/09/12 02:59:23;;;;;;;23.93;11.30;;;12.70;30.20;;;;;;5088025;28;20508;-78
2022/09/12 03:02:13;;;;;;;32.60;11.30;;;12.70;28.70;;;;;;5085090;28;20413;-78
2022/09/12 03:05:05;;;;;;;24.47;12.17;;;12.70;28.90;;;;;;5074880;28;20425;-82
2022/09/12 03:07:55;;;;;;;25.20;12.70;;;12.60;28.90;;;;;;5076309;28;20450;-82
2022/09/12 03:10:21;;;;;;;25.57;12.37;;;12.60;29.60;;;;;;5081340;28;20417;-82
2022/09/12 03:13:24;;;;;;;27.00;11.47;;;12.60;28.80;;;;;;5083848;28;20520;-82
2022/09/12 03:16:33;;;;;;;22.70;12.07;;;12.60;26.40;;;;;;5085994;28;20423;-82
2022/09/12 03:19:15;;;;;;;31.03;14.13;;;12.60;29.50;;;;;;5082439;28;20412;-77
2022/09/12 03:21:59;;;;;;;29.03;13.97;;;12.50;30.40;;;;;;5080363;28;20400;-78
2022/09/12 03:24:54;;;;;;;26.13;11.57;;;12.50;30.10;;;;;;5074517;28;20721;-78
2022/09/12 03:27:42;;;;;;;25.43;12.07;;;12.50;31.70;;;;;;5073354;28;20460;-78
2022/09/12 03:30:09;;;;;;;28.00;12.83;;;12.40;29.10;;;;;;5080208;28;20786;-78
2022/09/12 03:32:43;;;;;;;23.97;11.00;;;12.30;31.00;;;;;;5077736;28;20528;-81
2022/09/12 03:35:19;;;;;;;25.80;11.63;;;12.30;33.20;;;;;;5077089;28;20429;-78
2022/09/12 03:37:46;;;;;;;21.97;12.00;;;12.30;31.40;;;;;;5078179;28;20451;-78
2022/09/12 03:40:12;;;;;;;29.13;12.50;;;12.30;28.10;;;;;;5094204;28;20749;-78
2022/09/12 03:42:51;;;;;;;30.00;12.27;;;12.30;27.40;;;;;;5082217;28;20409;-79
2022/09/12 03:45:21;;;;;;;21.63;11.60;;;12.30;25.20;;;;;;5074045;28;20159;-78
2022/09/12 03:47:50;;;;;;;23.17;11.90;;;12.30;23.90;;;;;;5087107;28;20430;-81
2022/09/12 03:53:38;;;;;;;21.97;12.87;;;12.30;21.70;;;;;;5083509;28;20391;-82
2022/09/12 03:56:08;;;;;;;26.67;13.23;;;12.30;20.60;;;;;;5075182;28;20464;-82
2022/09/12 03:58:35;;;;;;;26.17;11.17;;;12.20;21.70;;;;;;5084151;28;20174;-82
2022/09/12 04:01:17;;;;;;;31.53;11.97;;;12.20;22.30;;;;;;5084033;28;20927;-82
2022/09/12 04:03:48;;;;;;;25.87;11.80;;;12.20;23.70;;;;;;5073992;28;20413;-78
2022/09/12 04:06:19;;;;;;;27.83;12.70;;;12.10;21.40;;;;;;5093367;28;20430;-78
2022/09/12 04:09:09;;;;;;;26.10;13.03;;;12.10;21.80;;;;;;5093708;28;20401;-78
2022/09/12 04:12:09;;;;;;;21.90;12.33;;;12.10;23.90;;;;;;5083490;28;20423;-78
2022/09/12 04:14:57;;;;;;;29.33;11.90;;;12.10;23.10;;;;;;5081585;28;20447;-78
2022/09/12 04:17:34;;;;;;;27.57;10.87;;;12.10;21.90;;;;;;5079646;28;20455;-78
2022/09/12 04:23:22;;;;;;;31.00;12.10;;;12.10;23.80;;;;;;5077801;28;20541;-80
2022/09/12 04:26:16;;;;;;;23.33;11.80;;;12.00;23.40;;;;;;5079221;28;20421;-80
2022/09/12 04:28:42;;;;;;;25.00;12.43;;;11.90;25.60;;;;;;5079793;28;20428;-80
2022/09/12 04:31:27;;;;;;;24.10;13.10;;;12.00;28.30;;;;;;5083084;28;20443;-80
2022/09/12 04:34:04;;;;;;;24.03;11.87;;;12.00;28.40;;;;;;5090925;28;20178;-76
2022/09/12 04:36:34;;;;;;;30.57;13.10;;;11.90;30.60;;;;;;5093114;28;20946;-76
2022/09/12 04:39:04;;;;;;;23.63;12.30;;;11.90;27.50;;;;;;5077720;28;20831;-75
2022/09/12 04:41:51;;;;;;;28.50;12.97;;;11.90;27.20;;;;;;5073636;28;20389;-75
2022/09/12 04:44:51;;;;;;;23.47;12.37;;;11.90;26.00;;;;;;5079177;28;20427;-75
2022/09/12 04:47:27;;;;;;;21.80;10.53;;;11.90;26.30;;;;;;5078973;28;20424;-76
2022/09/12 04:50:04;;;;;;;23.17;10.30;;;11.80;27.80;;;;;;5080185;28;20405;-75
2022/09/12 04:52:50;;;;;;;28.73;11.17;;;11.90;30.00;;;;;;5088839;28;20827;-76
2022/09/12 04:55:45;;;;;;;19.90;10.47;;;11.90;33.10;;;;;;5086489;28;20408;-76
2022/09/12 04:58:15;;;;;;;21.57;11.10;;;11.90;35.60;;;;;;5079688;28;20562;-75
2022/09/12 05:00:45;;;;;;;23.40;12.73;;;11.90;36.40;;;;;;5085625;28;20449;-76
2022/09/12 05:03:21;;;;;;;21.23;10.70;;;11.90;43.60;;;;;;5085283;28;20408;-75
2022/09/12 05:06:10;;;;;;;41.80;14.20;;;11.90;43.60;;;;;;5084038;28;20907;-75
2022/09/12 05:08:40;;;;;;;30.57;13.00;;;11.90;43.60;;;;;;5084732;28;20401;-76
2022/09/12 05:11:18;;;;;;;29.47;13.67;;;12.00;43.60;;;;;;5090420;28;20405;-75
2022/09/12 05:13:51;;;;;;;22.87;11.57;;;12.00;43.90;;;;;;5090413;28;21036;-76
2022/09/12 05:16:18;;;;;;;30.60;10.50;;;12.00;43.60;;;;;;5080094;28;20531;-76
2022/09/12 05:18:49;;;;;;;23.07;11.37;;;12.00;43.70;;;;;;5075628;28;20570;-79
2022/09/12 05:21:18;;;;;;;31.00;11.10;;;12.00;43.60;;;;;;5087040;28;20480;-77
2022/09/12 05:24:05;;;;;;;22.90;10.87;;;12.00;43.70;;;;;;5083432;28;20408;-76
2022/09/12 05:26:33;;;;;;;30.40;11.37;;;12.10;43.70;;;;;;5083101;28;20504;-76
2022/09/12 05:29:05;;;;;;;24.73;11.07;;;12.10;43.70;;;;;;5082730;28;20798;-76
2022/09/12 05:31:31;;;;;;;23.93;11.30;;;12.10;43.70;;;;;;5080258;28;20502;-76
2022/09/12 05:33:57;;;;;;;27.40;11.27;;;12.20;43.80;;;;;;5078504;28;20421;-76
2022/09/12 05:36:29;;;;;;;28.77;11.37;;;12.20;43.90;;;;;;5076328;28;20452;-76
2022/09/12 05:38:55;;;;;;;24.77;12.17;;;12.30;44.00;;;;;;5092791;28;20415;-76
2022/09/12 05:41:24;;;;;;;31.43;11.43;;;12.30;44.00;;;;;;5092138;28;20432;-75
2022/09/12 05:43:55;;;;;;;26.13;11.03;;;12.40;44.10;;;;;;5079251;28;20432;-76
2022/09/12 05:46:26;;;;;;;22.37;10.70;;;12.40;44.00;;;;;;5090463;28;20420;-76
2022/09/12 05:48:57;;;;;;;24.90;10.60;;;12.50;44.30;;;;;;5078668;28;20413;-76
2022/09/12 05:51:28;;;;;;;23.97;9.93;;;12.50;44.10;;;;;;5081455;28;21043;-79
2022/09/12 05:53:58;;;;;;;21.77;10.60;;;12.60;44.30;;;;;;5081169;28;20420;-79
2022/09/12 05:56:27;;;;;;;28.37;11.60;;;12.70;44.30;;;;;;5077815;28;20432;-79
2022/09/12 05:58:57;;;;;;;28.53;12.30;;;12.70;43.50;;;;;;5082112;28;20408;-79
2022/09/12 06:01:24;;;;;;;30.40;11.87;;;12.80;44.40;;;;;;5080585;28;20437;-79
2022/09/12 06:04:15;;;;;;;33.73;11.30;;;12.80;44.30;;;;;;5076507;28;20470;-80
2022/09/12 06:06:47;;;;;;;22.00;11.37;;;12.90;44.50;;;;;;5093955;28;20899;-75
2022/09/12 06:09:14;;;;;;;22.00;10.83;;;13.00;44.60;;;;;;5084447;28;20421;-76
2022/09/12 06:11:52;;;;;;;21.27;10.83;;;13.00;44.50;;;;;;5083836;28;20414;-76
2022/09/12 06:14:34;;;;;;;27.93;12.17;;;13.10;44.70;;;;;;5077760;28;20425;-76
2022/09/12 06:17:04;;;;;;;30.10;11.37;;;13.20;44.80;;;;;;5084718;28;20475;-75
2022/09/12 06:19:30;;;;;;;33.13;12.87;;;13.30;44.80;;;;;;5076204;28;20436;-76
2022/09/12 06:21:55;;;;;;;27.40;12.90;;;13.40;45.10;;;;;;5080378;28;20421;-75
2022/09/12 06:24:22;;;;;;;25.93;12.40;;;13.50;45.00;;;;;;5086479;28;20178;-76
2022/09/12 06:26:51;;;;;;;31.80;13.50;;;13.60;45.30;;;;;;5097676;28;20177;-76
2022/09/12 06:29:28;;;;;;;27.70;12.27;;;13.80;45.30;;;;;;5083328;28;20436;-75
2022/09/12 06:32:04;;;;;;;26.83;11.97;;;13.90;45.50;;;;;;5080637;28;20439;-76
2022/09/12 06:34:39;;;;;;;19.03;10.70;;;14.00;45.40;;;;;;5084188;28;20503;-79
2022/09/12 06:37:10;;;;;;;23.40;12.07;;;14.10;45.60;;;;;;5074310;28;20485;-80
2022/09/12 06:39:47;;;;;;;22.00;11.30;;;14.20;45.60;;;;;;5088681;28;20402;-80
2022/09/12 06:42:22;;;;;;;23.33;12.70;;;14.30;45.70;;;;;;5075789;28;20392;-79
2022/09/12 06:44:51;;;;;;;25.03;13.03;;;14.30;45.70;;;;;;5090475;28;20420;-80
2022/09/12 06:47:45;;;;;;;25.83;12.00;;;14.50;46.10;;;;;;5088408;28;20805;-79
2022/09/12 06:50:12;;;;;;;20.97;12.07;;;14.60;46.00;;;;;;5088875;28;20437;-76
2022/09/12 06:52:38;;;;;;;30.03;12.80;;;14.70;46.00;;;;;;5082806;28;20420;-76
2022/09/12 06:55:04;;;;;;;22.37;12.70;;;14.80;46.10;;;;;;5081391;28;20371;-76
2022/09/12 06:57:31;;;;;;;28.07;11.90;;;15.00;29.20;;;;;;5084131;28;20194;-76
2022/09/12 06:59:57;;;;;;;23.40;11.37;;;15.10;22.70;;;;;;5092467;28;20927;-76
2022/09/12 07:02:39;;;;;;;17.43;10.60;;;15.10;24.20;;;;;;5093948;28;20950;-76
2022/09/12 07:05:22;;;;;;;19.77;10.90;;;15.30;24.50;;;;;;5085511;28;20420;-79
2022/09/12 07:08:09;;;;;;;19.07;9.40;;;15.40;20.40;;;;;;5090093;28;20434;-79
2022/09/12 07:10:46;;;;;;;17.50;10.40;;;15.50;18.80;;;;;;5072717;28;20372;-79
2022/09/12 07:13:21;;;;;;;17.10;10.63;;;15.60;12.40;;;;;;5075402;28;20428;-80
2022/09/12 07:16:10;;;;;;;15.93;9.80;;;15.70;1.00;;;;;;5081803;28;20845;-80
2022/09/12 07:18:37;;;;;;;14.40;9.43;;;15.80;1.00;;;;;;5082133;28;20895;-80
2022/09/12 07:21:06;;;;;;;16.70;9.70;;;15.90;1.00;;;;;;5091089;28;20832;-76
2022/09/12 07:23:32;;;;;;;16.90;9.80;;;16.00;1.00;;;;;;5090695;28;20391;-76
2022/09/12 07:26:03;;;;;;;13.17;9.43;;;16.20;1.00;;;;;;5093976;28;20394;-76
2022/09/12 07:28:39;;;;;;;13.70;9.67;;;16.20;1.00;;;;;;5086205;28;20247;-76
2022/09/12 07:31:18;;;;;;;16.10;10.43;;;16.40;1.00;;;;;;5080553;28;20410;-76
2022/09/12 07:33:46;;;;;;;13.53;9.50;;;16.50;1.00;;;;;;5085762;28;20391;-76
2022/09/12 07:36:24;;;;;;;16.10;9.37;;;16.60;1.00;;;;;;5081195;28;20431;-80
2022/09/12 07:38:55;;;;;;;19.53;9.90;;;16.70;1.00;;;;;;5084783;28;20401;-80
2022/09/12 07:41:24;;;;;;;13.57;8.37;;;16.90;1.00;;;;;;5073679;28;20430;-80
2022/09/12 07:44:15;;;;;;;17.23;9.87;;;17.00;1.00;;;;;;5074443;28;20369;-80
2022/09/12 07:46:57;;;;;;;14.83;9.60;;;17.10;1.00;;;;;;5089330;28;20450;-81
2022/09/12 07:49:51;;;;;;;16.40;9.93;;;17.20;1.00;;;;;;5083301;28;20826;-79
2022/09/12 07:52:33;;;;;;;10.50;8.50;;;17.40;1.00;;;;;;5073389;28;20401;-80
2022/09/12 07:55:21;;;;;;;13.67;9.53;;;17.50;1.00;;;;;;5075084;28;20373;-80
2022/09/12 07:57:51;;;;;;;11.27;7.97;;;17.60;1.00;;;;;;5073803;28;20456;-80
2022/09/12 08:01:03;;;;;;;13.20;8.50;;;17.70;1.00;;;;;;5073448;28;20776;-80
2022/09/12 08:03:35;;;;;;;13.33;8.57;;;17.90;1.00;;;;;;5078076;28;20422;-80
2022/09/12 08:06:09;;;;;;;9.60;7.73;;;18.00;1.00;;;;;;5073904;28;20498;-76
2022/09/12 08:08:40;;;;;;;14.10;9.43;;;18.10;1.00;;;;;;5077182;28;20482;-76
2022/09/12 08:11:10;;;;;;;14.67;8.80;;;18.30;1.00;;;;;;5090790;28;20411;-76
2022/09/12 08:13:46;;;;;;;20.80;8.90;;;18.40;1.00;;;;;;5076522;28;20424;-77
2022/09/12 08:16:16;;;;;;;12.20;8.40;;;18.50;1.00;;;;;;5073734;28;20534;-76
2022/09/12 08:18:43;;;;;;;8.90;7.40;;;18.60;1.00;;;;;;5082090;28;20932;-76
2022/09/12 08:21:13;;;;;;;13.70;7.73;;;18.70;1.00;;;;;;5083239;28;20465;-80
2022/09/12 08:24:10;;;;;;;10.00;7.10;;;18.90;1.00;;;;;;5079361;28;20412;-80
2022/09/12 08:26:36;;;;;;;11.20;7.27;;;19.00;1.00;;;;;;5074886;28;20945;-89
2022/09/12 08:29:33;;;;;;;10.50;7.70;;;19.10;1.00;;;;;;5073638;28;20416;-87
2022/09/12 08:32:46;;;;;;;8.83;7.40;;;19.20;1.00;;;;;;5075429;28;20531;-86
2022/09/12 08:35:16;;;;;;;12.30;7.80;;;19.40;1.00;;;;;;5078989;28;20884;-86
2022/09/12 08:37:46;;;;;;;10.60;8.10;;;19.50;1.00;;;;;;5092910;28;20786;-87
2022/09/12 08:40:17;;;;;;;9.07;7.43;;;19.60;1.00;;;;;;5083578;28;20410;-87
2022/09/12 08:43:28;;;;;;;11.70;8.40;;;19.80;1.00;;;;;;5080713;28;20393;-87
2022/09/12 08:46:22;;;;;;;10.40;7.67;;;19.80;1.00;;;;;;5088505;28;20417;-87
2022/09/12 08:49:12;;;;;;;9.60;7.47;;;19.80;1.00;;;;;;5072858;28;20485;-88
2022/09/12 08:51:39;;;;;;;9.80;8.00;;;19.90;1.00;;;;;;5089258;28;20481;-87
2022/09/12 08:54:45;;;;;;;7.53;6.77;;;20.00;1.00;;;;;;5091142;28;20472;-86
2022/09/12 08:57:45;;;;;;;15.43;7.50;;;20.10;1.00;;;;;;5090527;28;20547;-87
2022/09/12 09:00:22;;;;;;;10.43;7.87;;;20.30;1.00;;;;;;5087513;28;20404;-87
2022/09/12 09:03:16;;;;;;;9.87;7.23;;;20.30;1.00;;;;;;5085346;28;20426;-87
2022/09/12 09:05:48;;;;;;;7.70;6.30;;;20.40;1.00;;;;;;5076262;28;20443;-87
2022/09/12 09:09:06;;;;;;;10.83;6.40;;;20.70;1.00;;;;;;5094184;28;20433;-86
2022/09/12 09:11:49;;;;;;;7.80;6.50;;;20.90;1.00;;;;;;5021471;28;20507;-87
2022/09/12 09:14:52;;;;;;;8.83;6.27;;;21.20;1.00;;;;;;5026535;28;20411;-87
2022/09/12 09:17:45;;;;;;;25.77;7.53;;;21.30;1.00;;;;;;5031981;28;20465;-87
2022/09/12 09:20:48;;;;;;;9.10;6.30;;;21.50;1.00;;;;;;5022455;28;20423;-79
2022/09/12 09:23:30;;;;;;;7.90;6.30;;;21.70;1.00;;;;;;5025810;28;20435;-76
2022/09/12 09:26:13;;;;;;;7.47;5.40;;;22.00;1.00;;;;;;5018168;28;20412;-77
2022/09/12 09:28:46;;;;;;;8.43;6.40;;;22.10;1.00;;;;;;5030851;28;20827;-77
2022/09/12 09:31:19;;;;;;;9.83;6.17;;;22.20;1.00;;;;;;5014131;28;20433;-77
2022/09/12 09:33:51;;;;;;;7.33;6.47;;;22.30;1.00;;;;;;5031054;28;20453;-77
2022/09/12 09:36:33;;;;;;;8.73;6.97;;;22.40;1.00;;;;;;5022478;28;20867;-77
2022/09/12 09:39:25;;;;;;;7.97;6.00;;;22.50;1.00;;;;;;5014801;28;20420;-77
2022/09/12 09:42:21;;;;;;;14.20;6.10;;;22.60;1.00;;;;;;5031895;28;20382;-77
2022/09/12 09:45:03;;;;;;;7.80;6.10;;;22.80;1.00;;;;;;5015407;28;20466;-76
2022/09/12 09:47:34;;;;;;;8.03;5.40;;;23.00;1.00;;;;;;5070751;28;20784;-77
2022/09/12 09:50:01;;;;;;;8.27;5.30;;;23.10;1.00;;;;;;5080747;28;20414;-77
2022/09/12 09:52:30;;;;;;;7.63;6.23;;;23.30;1.00;;;;;;5084973;28;20940;-80
2022/09/12 09:55:34;;;;;;;14.00;6.27;;;23.40;1.00;;;;;;5075680;28;20426;-80
2022/09/12 09:57:59;;;;;;;6.80;5.70;;;23.50;1.00;;;;;;5074595;28;20480;-80
2022/09/12 10:00:37;;;;;;;9.30;6.50;;;23.50;1.00;;;;;;5076502;28;20423;-80
2022/09/12 10:03:13;;;;;;;7.10;6.13;;;23.50;1.00;;;;;;5076942;28;20266;-80
2022/09/12 10:06:06;;;;;;;8.90;5.67;;;23.60;1.00;;;;;;5078502;28;20417;-80
2022/09/12 10:08:40;;;;;;;6.90;5.50;;;23.70;1.00;;;;;;5090713;28;20437;-76
2022/09/12 10:11:25;;;;;;;8.33;5.70;;;23.70;1.00;;;;;;5094403;28;20416;-79
2022/09/12 10:14:01;;;;;;;8.10;5.63;;;23.70;1.00;;;;;;5095197;28;20480;-79
2022/09/12 10:16:31;;;;;;;6.43;5.73;;;23.80;1.00;;;;;;5076907;28;20447;-77
2022/09/12 10:19:23;;;;;;;6.97;5.10;;;23.90;1.00;;;;;;5082357;28;20819;-76
2022/09/12 10:25:19;;;;;;;6.20;5.27;;;24.10;1.00;;;;;;5089393;28;20403;-77
2022/09/12 10:28:26;;;;;;;6.67;5.00;;;24.20;1.00;;;;;;5085938;28;20465;-79
2022/09/12 10:30:55;;;;;;;5.03;4.47;;;24.40;1.00;;;;;;5077944;28;20445;-75
2022/09/12 10:33:25;;;;;;;6.23;4.80;;;24.50;1.00;;;;;;5095925;28;20746;-76
2022/09/12 10:35:54;;;;;;;5.73;4.60;;;24.60;1.00;;;;;;5077435;28;20416;-76
2022/09/12 10:38:34;;;;;;;5.77;4.70;;;24.70;1.00;;;;;;5089265;28;20473;-76
2022/09/12 10:41:06;;;;;;;7.00;4.50;;;24.70;1.00;;;;;;5087287;28;21077;-75
2022/09/12 10:43:41;;;;;;;5.13;4.57;;;24.80;1.00;;;;;;5083136;28;20502;-75
2022/09/12 10:46:18;;;;;;;6.30;4.67;;;24.90;1.00;;;;;;5099125;28;20441;-76
2022/09/12 10:48:48;;;;;;;4.57;3.97;;;25.10;1.00;;;;;;5093268;28;20423;-76
2022/09/12 10:51:27;;;;;;;6.27;4.20;;;25.20;1.00;;;;;;5071960;28;20440;-75
2022/09/12 10:54:07;;;;;;;6.47;4.10;;;25.30;1.00;;;;;;5076778;28;20423;-76
2022/09/12 10:56:44;;;;;;;5.10;4.60;;;25.40;1.00;;;;;;5072911;28;20498;-76
2022/09/12 10:59:43;;;;;;;4.77;4.37;;;25.40;1.00;;;;;;5078703;28;20449;-76
2022/09/12 11:02:43;;;;;;;5.50;4.00;;;25.50;1.00;;;;;;5077849;28;20470;-76
2022/09/12 11:05:45;;;;;;;5.20;4.70;;;25.60;1.00;;;;;;5079033;28;20422;-75
2022/09/12 11:08:22;;;;;;;4.20;3.80;;;25.60;1.00;;;;;;5082714;28;20415;-76
2022/09/12 11:10:53;;;;;;;4.63;4.13;;;25.70;1.00;;;;;;5077551;28;20997;-76
2022/09/12 11:13:46;;;;;;;7.03;4.63;;;25.60;1.00;;;;;;5083186;28;20450;-76
2022/09/12 11:16:21;;;;;;;4.37;3.97;;;25.60;1.00;;;;;;5083166;28;20409;-76
2022/09/12 11:19:28;;;;;;;4.37;3.97;;;25.60;1.00;;;;;;5074501;28;20435;-76
2022/09/12 11:22:25;;;;;;;4.17;3.77;;;25.50;1.00;;;;;;5093498;28;20403;-75
2022/09/12 11:25:21;;;;;;;4.90;4.13;;;25.50;1.00;;;;;;5084003;28;20433;-76
2022/09/12 11:28:16;;;;;;;5.77;4.73;;;25.50;1.00;;;;;;5082474;28;20954;-75
2022/09/12 11:31:14;;;;;;;5.53;4.27;;;25.40;1.00;;;;;;5078789;28;20485;-76
2022/09/12 11:33:49;;;;;;;6.10;4.30;;;25.50;1.00;;;;;;5074302;28;20516;-75
2022/09/12 11:36:20;;;;;;;4.73;4.20;;;25.60;1.00;;;;;;5086463;28;21086;-76
2022/09/12 11:38:55;;;;;;;3.90;3.60;;;25.60;1.00;;;;;;5082960;28;20508;-76
2022/09/12 11:41:33;;;;;;;4.60;3.90;;;25.60;1.00;;;;;;5079441;28;20415;-77
2022/09/12 11:44:33;;;;;;;4.40;3.97;;;25.60;1.00;;;;;;5087086;28;20427;-81
2022/09/12 11:47:08;;;;;;;4.03;3.73;;;25.70;1.00;;;;;;5076636;28;20534;-84
2022/09/12 11:49:39;;;;;;;6.80;3.83;;;25.90;1.00;;;;;;5098196;28;20976;-80
2022/09/12 11:52:52;;;;;;;7.33;3.93;;;26.00;1.00;;;;;;5084022;28;20433;-81
2022/09/12 11:55:27;;;;;;;3.90;3.60;;;26.10;1.00;;;;;;5081538;28;20417;-84
2022/09/12 11:57:54;;;;;;;4.10;3.27;;;26.20;1.00;;;;;;5084111;28;20449;-78
2022/09/12 12:00:20;;;;;;;4.47;4.07;;;26.20;1.00;;;;;;5082022;28;20430;-81
2022/09/12 12:02:51;;;;;;;5.17;4.10;;;26.20;1.00;;;;;;5078746;28;20436;-80
2022/09/12 12:05:50;;;;;;;6.13;4.20;;;26.20;1.00;;;;;;5082950;28;20647;-80
2022/09/12 12:08:17;;;;;;;4.10;3.70;;;26.10;1.00;;;;;;5092293;28;20925;-79
2022/09/12 12:11:04;;;;;;;4.93;3.70;;;26.20;1.00;;;;;;5073036;28;20457;-80
2022/09/12 12:13:51;;;;;;;4.57;3.43;;;26.50;1.00;;;;;;5072465;28;20430;-82
2022/09/12 12:16:46;;;;;;;3.43;3.13;;;26.60;1.00;;;;;;5085141;28;20533;-81
2022/09/12 12:19:35;;;;;;;8.07;3.83;;;26.60;1.00;;;;;;5076696;28;20479;-81
2022/09/12 12:22:23;;;;;;;3.50;3.20;;;26.50;1.00;;;;;;5087749;28;20427;-81
2022/09/12 12:25:04;;;;;;;3.00;2.80;;;26.30;1.00;;;;;;5083506;28;20463;-81
2022/09/12 12:27:52;;;;;;;3.03;2.80;;;26.40;1.00;;;;;;5086435;28;20442;-81
2022/09/12 12:30:32;;;;;;;2.90;2.70;;;26.50;1.00;;;;;;5080095;28;20766;-82
2022/09/12 12:33:08;;;;;;;3.30;3.03;;;26.60;1.00;;;;;;5081741;28;20439;-82
2022/09/12 12:36:04;;;;;;;3.27;2.97;;;26.70;1.00;;;;;;5073371;28;20410;-82
2022/09/12 12:38:34;;;;;;;3.40;3.00;;;26.70;1.00;;;;;;5085618;28;20438;-80
2022/09/12 12:41:22;;;;;;;2.83;2.60;;;26.70;1.00;;;;;;5082787;28;20411;-79
2022/09/12 12:43:55;;;;;;;3.63;3.27;;;26.50;1.00;;;;;;5089915;28;20482;-79
2022/09/12 12:46:40;;;;;;;3.50;3.30;;;26.50;1.00;;;;;;5073231;28;20440;-79
2022/09/12 12:49:28;;;;;;;2.90;2.70;;;26.50;1.00;;;;;;5079998;28;20406;-79
2022/09/12 12:52:00;;;;;;;3.30;3.00;;;26.50;1.00;;;;;;5073748;28;20411;-79
2022/09/12 12:58:27;;;;;;;3.00;2.80;;;26.40;1.00;;;;;;5073188;28;20537;-81
2022/09/12 13:04:18;;;;;;;3.77;3.47;;;26.60;1.00;;;;;;5072618;28;20438;-82
2022/09/12 13:06:56;;;;;;;3.93;3.53;;;26.70;1.00;;;;;;5074667;28;20434;-81
2022/09/12 13:09:42;;;;;;;4.80;3.73;;;26.90;1.00;;;;;;5090086;28;20418;-79
2022/09/12 13:12:26;;;;;;;3.43;3.20;;;26.80;1.00;;;;;;5080572;28;20931;-79
2022/09/12 13:14:58;;;;;;;2.87;2.77;;;27.00;1.00;;;;;;5084034;28;20427;-79
2022/09/12 13:17:43;;;;;;;7.00;3.07;;;27.10;1.00;;;;;;5081308;28;20464;-79
2022/09/12 13:20:28;;;;;;;4.37;3.27;;;27.30;1.00;;;;;;5087342;28;20436;-79
2022/09/12 13:22:55;;;;;;;3.47;2.90;;;27.50;1.00;;;;;;5082038;28;20403;-80
2022/09/12 13:25:35;;;;;;;4.40;2.77;;;27.60;1.00;;;;;;5077311;28;20426;-82
2022/09/12 13:28:23;;;;;;;3.07;2.87;;;27.70;1.00;;;;;;5087255;28;20533;-82
2022/09/12 13:31:07;;;;;;;9.43;3.17;;;27.70;1.00;;;;;;5075991;28;20445;-82
2022/09/12 13:33:54;;;;;;;3.20;2.90;;;27.70;1.00;;;;;;5090191;28;20510;-77
2022/09/12 13:36:39;;;;;;;4.00;2.63;;;27.70;1.00;;;;;;5084789;28;20823;-76
2022/09/12 13:42:47;;;;;;;3.20;3.00;;;27.60;1.00;;;;;;5077122;28;20922;-84
2022/09/12 13:45:46;;;;;;;4.07;2.73;;;27.70;1.00;;;;;;5075890;28;20909;-85
2022/09/12 13:48:28;;;;;;;4.20;3.80;;;27.60;1.00;;;;;;5082453;28;20444;-85
2022/09/12 13:51:34;;;;;;;4.20;3.10;;;27.70;1.00;;;;;;5087719;28;20425;-85
2022/09/12 13:54:03;;;;;;;3.27;3.07;;;27.80;1.00;;;;;;5084736;28;20426;-83
2022/09/12 13:56:29;;;;;;;3.13;2.83;;;27.80;1.00;;;;;;5091237;28;20451;-76
2022/09/12 13:59:00;;;;;;;4.03;3.30;;;27.80;1.00;;;;;;5079116;28;20410;-76
2022/09/12 14:01:42;;;;;;;3.03;2.83;;;27.90;1.00;;;;;;5083466;28;20181;-76
2022/09/12 14:07:30;;;;;;;4.30;3.30;;;28.00;1.00;;;;;;5095838;28;20413;-76
2022/09/12 14:09:58;;;;;;;5.73;3.30;;;28.10;1.00;;;;;;5093728;28;20917;-85
2022/09/12 14:12:49;;;;;;;4.53;3.43;;;28.20;1.00;;;;;;5091968;28;20431;-85
2022/09/12 14:15:58;;;;;;;8.30;3.60;;;28.20;1.00;;;;;;5081241;28;20440;-85
2022/09/12 14:18:47;;;;;;;3.60;3.30;;;28.10;1.00;;;;;;5075738;28;20456;-85
2022/09/12 14:21:43;;;;;;;3.60;3.30;;;28.10;1.00;;;;;;5082468;28;20756;-85
2022/09/12 14:24:17;;;;;;;3.90;3.60;;;28.00;1.00;;;;;;5005636;28;20495;-84
2022/09/12 14:26:58;;;;;;;11.23;3.37;;;28.10;1.00;;;;;;5014169;28;20496;-76
2022/09/12 14:29:34;;;;;;;4.20;3.80;;;28.20;1.00;;;;;;5012402;28;20820;-77
2022/09/12 14:32:04;;;;;;;3.77;3.43;;;28.30;1.00;;;;;;5013394;28;20433;-76
2022/09/12 14:35:17;;;;;;;3.83;3.50;;;28.20;1.00;;;;;;5003442;28;20445;-76